Time;durP1;ratioP1;P1;durP2;ratioP2;P2;SDS_P1;SDS_P2;PMS_P1;PMS_P2;Temp;Humidity;BMP_temperature;BMP_pressure;BME280_temperature;BME280_humidity;BME280_pressure;Samples;Min_cycle;Max_cycle;Signal;HPM_P1;HPM_P2
2021/01/06 00:00:19;;;;;;;18.03;9.47;;;3.60;94.90;;;;;;4985665;28;20014;-93
2021/01/06 00:02:44;;;;;;;17.70;8.77;;;3.60;94.80;;;;;;4984967;28;20015;-94
2021/01/06 00:05:20;;;;;;;18.67;8.90;;;3.60;94.80;;;;;;4985488;28;20026;-93
2021/01/06 00:07:46;;;;;;;17.53;8.33;;;3.70;94.70;;;;;;4985655;28;20102;-93
2021/01/06 00:10:16;;;;;;;16.13;8.37;;;3.70;94.70;;;;;;4985470;28;20046;-93
2021/01/06 00:12:42;;;;;;;;;;;3.70;94.70;;;;;;4985901;28;20062;-91
2021/01/06 00:15:14;;;;;;;17.57;8.50;;;3.60;94.70;;;;;;4985137;28;19894;-92
2021/01/06 00:17:39;;;;;;;16.20;8.63;;;3.60;94.70;;;;;;4985453;28;20023;-93
2021/01/06 00:20:09;;;;;;;17.03;8.33;;;3.60;94.80;;;;;;4985378;28;20038;-92
2021/01/06 00:22:35;;;;;;;18.37;8.33;;;3.70;94.70;;;;;;4985186;28;20015;-92
2021/01/06 00:25:00;;;;;;;18.00;8.63;;;3.70;94.60;;;;;;4984949;28;20049;-92
2021/01/06 00:27:26;;;;;;;17.23;8.20;;;3.70;94.70;;;;;;4985138;28;20038;-92
2021/01/06 00:29:52;;;;;;;17.90;9.37;;;3.70;94.70;;;;;;4985103;28;20022;-93
2021/01/06 00:32:19;;;;;;;17.23;8.90;;;3.60;94.60;;;;;;4985259;28;20019;-93
2021/01/06 00:34:46;;;;;;;16.63;8.83;;;3.60;94.60;;;;;;4984781;28;20011;-93
2021/01/06 00:37:13;;;;;;;17.17;8.63;;;3.60;94.70;;;;;;4985110;28;20015;-92
2021/01/06 00:39:39;;;;;;;18.07;9.03;;;3.60;94.70;;;;;;4984995;28;20082;-92
2021/01/06 00:42:05;;;;;;;16.67;8.27;;;3.60;94.70;;;;;;4985011;28;20011;-92
2021/01/06 00:44:31;;;;;;;16.17;7.57;;;3.60;94.70;;;;;;4984905;28;20027;-93
2021/01/06 00:46:56;;;;;;;16.87;7.77;;;3.60;94.80;;;;;;4984978;28;20042;-94
2021/01/06 00:49:22;;;;;;;17.67;8.17;;;3.60;94.70;;;;;;4984802;28;20019;-92
2021/01/06 00:51:49;;;;;;;16.83;7.97;;;3.60;94.70;;;;;;4984618;28;20050;-93
2021/01/06 00:54:15;;;;;;;16.03;8.00;;;3.60;94.80;;;;;;4984544;28;20025;-93
2021/01/06 00:56:41;;;;;;;16.53;7.50;;;3.60;94.70;;;;;;4984584;28;20034;-92
2021/01/06 00:59:06;;;;;;;16.57;8.00;;;3.60;94.60;;;;;;4984660;28;20066;-93
2021/01/06 01:01:32;;;;;;;17.37;8.20;;;3.60;94.60;;;;;;4984702;28;20017;-93
2021/01/06 01:03:57;;;;;;;16.80;7.73;;;3.60;94.70;;;;;;4984462;28;20013;-92
2021/01/06 01:06:28;;;;;;;17.10;8.43;;;3.60;94.50;;;;;;4984487;28;20039;-93
2021/01/06 01:08:58;;;;;;;16.33;8.30;;;3.60;94.60;;;;;;4984498;28;20061;-93
2021/01/06 01:11:25;;;;;;;17.80;8.70;;;3.60;94.30;;;;;;4984184;28;20090;-93
2021/01/06 01:13:52;;;;;;;18.77;8.93;;;3.50;94.60;;;;;;4983333;28;20021;-93
2021/01/06 01:16:20;;;;;;;17.10;8.33;;;3.50;94.60;;;;;;4984314;28;20023;-93
2021/01/06 01:18:46;;;;;;;17.97;8.97;;;3.60;94.60;;;;;;4984256;28;20015;-92
2021/01/06 01:21:15;;;;;;;17.40;8.70;;;3.60;94.60;;;;;;4984197;28;20014;-92
2021/01/06 01:23:42;;;;;;;17.52;8.68;;;3.50;94.60;;;;;;4983816;28;20025;-93
2021/01/06 01:26:09;;;;;;;17.77;9.37;;;3.50;94.60;;;;;;4984241;28;20037;-94
2021/01/06 01:28:35;;;;;;;17.97;9.37;;;3.40;94.60;;;;;;4983791;28;20026;-92
2021/01/06 01:31:00;;;;;;;16.80;8.30;;;3.50;94.80;;;;;;4984231;28;20029;-92
2021/01/06 01:33:26;;;;;;;17.53;8.57;;;3.50;94.70;;;;;;4983874;28;20039;-93
2021/01/06 01:35:52;;;;;;;16.93;8.67;;;3.50;94.60;;;;;;4983699;28;20082;-93
2021/01/06 01:38:24;;;;;;;18.47;8.70;;;3.50;94.40;;;;;;4983795;28;20023;-94
2021/01/06 01:41:21;;;;;;;17.23;8.50;;;3.50;94.40;;;;;;4983626;28;20043;-92
2021/01/06 01:43:46;;;;;;;16.70;8.57;;;3.50;94.60;;;;;;4982609;28;20023;-94
2021/01/06 01:46:44;;;;;;;17.83;8.97;;;3.50;94.60;;;;;;4983803;28;20110;-93
2021/01/06 01:49:26;;;;;;;17.40;7.77;;;3.50;94.60;;;;;;4983720;28;20053;-93
2021/01/06 01:51:58;;;;;;;15.77;7.43;;;3.50;94.50;;;;;;4983474;28;20034;-93
2021/01/06 01:54:25;;;;;;;18.60;8.20;;;3.50;94.40;;;;;;4983720;28;20030;-93
2021/01/06 01:57:00;;;;;;;18.23;7.10;;;3.50;94.10;;;;;;4983543;28;20038;-94
2021/01/06 01:59:53;;;;;;;16.60;7.60;;;3.50;94.10;;;;;;4983548;28;20007;-92
2021/01/06 02:02:43;;;;;;;16.60;7.40;;;3.50;94.30;;;;;;4983519;28;20029;-93
2021/01/06 02:05:34;;;;;;;14.37;6.67;;;3.50;93.90;;;;;;4983341;28;20094;-94
2021/01/06 02:08:08;;;;;;;16.90;7.03;;;3.50;94.20;;;;;;4975638;28;20057;-93
2021/01/06 02:10:37;;;;;;;16.47;7.67;;;3.50;94.20;;;;;;4983402;28;20031;-93
2021/01/06 02:13:12;;;;;;;16.65;7.05;;;3.50;94.00;;;;;;4983269;28;20095;-93
2021/01/06 02:16:03;;;;;;;15.60;6.97;;;3.50;94.30;;;;;;4983320;28;20022;-92
2021/01/06 02:18:29;;;;;;;16.00;6.90;;;3.50;94.20;;;;;;4983319;28;20018;-92
2021/01/06 02:21:20;;;;;;;13.53;6.40;;;3.50;94.20;;;;;;4983447;28;20019;-92
2021/01/06 02:23:49;;;;;;;15.23;6.83;;;3.50;94.10;;;;;;4983165;28;20015;-93
2021/01/06 02:26:15;;;;;;;;;;;3.50;94.20;;;;;;4983172;28;20031;-93
2021/01/06 02:28:41;;;;;;;15.47;6.83;;;3.50;94.10;;;;;;4982981;28;19926;-93
2021/01/06 02:31:07;;;;;;;16.77;7.60;;;3.50;94.00;;;;;;4983178;28;20015;-94
2021/01/06 02:33:34;;;;;;;15.00;6.67;;;3.40;94.00;;;;;;4983084;28;20042;-93
2021/01/06 02:36:00;;;;;;;16.53;7.33;;;3.40;94.10;;;;;;4983199;28;20015;-94
2021/01/06 02:38:26;;;;;;;16.23;6.73;;;3.40;94.10;;;;;;4983057;28;20039;-93
2021/01/06 02:40:54;;;;;;;15.10;7.33;;;3.40;94.20;;;;;;4983102;28;20043;-93
2021/01/06 02:43:21;;;;;;;15.60;7.40;;;3.40;94.20;;;;;;4983209;28;20042;-93
2021/01/06 02:45:46;;;;;;;16.97;7.70;;;3.40;94.20;;;;;;4983081;28;20015;-93
2021/01/06 02:48:12;;;;;;;16.80;7.20;;;3.40;94.20;;;;;;4982878;28;20046;-92
2021/01/06 02:50:43;;;;;;;19.03;8.07;;;3.40;94.30;;;;;;4982938;28;20019;-92
2021/01/06 02:53:11;;;;;;;17.23;7.77;;;3.50;94.30;;;;;;4982991;28;20103;-93
2021/01/06 02:55:38;;;;;;;15.67;7.40;;;3.40;94.20;;;;;;4982919;28;20041;-93
2021/01/06 02:58:08;;;;;;;16.90;7.60;;;3.50;94.20;;;;;;4982644;28;20070;-95
2021/01/06 03:00:35;;;;;;;17.33;7.63;;;3.50;94.10;;;;;;4982921;28;20019;-93
2021/01/06 03:03:02;;;;;;;16.70;8.33;;;3.50;94.10;;;;;;4982713;28;20022;-92
2021/01/06 03:05:54;;;;;;;18.50;8.80;;;3.50;94.10;;;;;;4982885;28;20039;-93
2021/01/06 03:08:20;;;;;;;16.93;8.17;;;3.40;94.00;;;;;;4982262;28;20102;-93
2021/01/06 03:10:46;;;;;;;15.67;7.63;;;3.40;94.10;;;;;;4982908;28;20026;-93
2021/01/06 03:13:12;;;;;;;16.77;7.73;;;3.40;94.20;;;;;;4982705;28;20018;-92
2021/01/06 03:15:38;;;;;;;16.17;7.47;;;3.40;94.10;;;;;;4982659;28;20087;-93
2021/01/06 03:18:04;;;;;;;18.80;8.17;;;3.40;94.10;;;;;;4982728;28;20023;-92
2021/01/06 03:20:42;;;;;;;17.10;8.17;;;3.40;94.20;;;;;;4982685;28;20088;-94
2021/01/06 03:23:26;;;;;;;15.57;7.17;;;3.40;94.00;;;;;;4982804;28;20019;-95
2021/01/06 03:25:53;;;;;;;15.67;6.67;;;3.40;93.70;;;;;;4982591;28;20019;-93
2021/01/06 03:28:20;;;;;;;15.93;7.20;;;3.40;93.90;;;;;;4982450;28;20098;-92
2021/01/06 03:30:48;;;;;;;16.77;7.50;;;3.40;94.10;;;;;;4982598;28;20011;-93
2021/01/06 03:33:31;;;;;;;17.30;7.83;;;3.40;93.90;;;;;;4982721;28;20027;-94
2021/01/06 03:36:09;;;;;;;17.90;6.60;;;3.40;93.80;;;;;;4982602;28;20027;-94
2021/01/06 03:38:39;;;;;;;14.67;6.70;;;3.40;93.70;;;;;;4986045;28;20014;-92
2021/01/06 03:41:07;;;;;;;15.20;6.70;;;3.40;93.90;;;;;;4985840;28;20046;-94
2021/01/06 03:43:36;;;;;;;17.27;7.30;;;3.40;93.90;;;;;;4985992;28;20027;-92
2021/01/06 03:46:10;;;;;;;15.32;6.88;;;3.40;93.80;;;;;;4986051;28;20042;-93
2021/01/06 03:48:48;;;;;;;15.47;6.90;;;3.40;93.90;;;;;;4985821;28;20030;-92
2021/01/06 03:51:38;;;;;;;18.20;7.85;;;3.40;94.00;;;;;;4985696;28;20019;-93
2021/01/06 03:54:21;;;;;;;14.20;6.10;;;3.40;93.80;;;;;;4985378;28;20027;-93
2021/01/06 03:56:49;;;;;;;14.97;6.97;;;3.40;93.90;;;;;;4985683;28;20007;-93
2021/01/06 03:59:21;;;;;;;15.53;6.67;;;3.30;93.80;;;;;;4985666;28;20015;-93
2021/01/06 04:02:20;;;;;;;14.73;6.70;;;3.40;93.70;;;;;;4985729;28;20011;-93
2021/01/06 04:05:24;;;;;;;13.90;6.45;;;3.40;93.90;;;;;;4985262;28;20082;-93
2021/01/06 04:07:52;;;;;;;15.53;6.80;;;3.30;94.00;;;;;;4985504;28;20057;-93
2021/01/06 04:10:23;;;;;;;14.57;6.93;;;3.30;93.90;;;;;;4985684;28;20019;-93
2021/01/06 04:12:49;;;;;;;15.30;6.83;;;3.40;93.90;;;;;;4985343;28;20019;-92
2021/01/06 04:15:16;;;;;;;17.17;7.90;;;3.40;94.00;;;;;;4985531;28;20038;-92
2021/01/06 04:17:46;;;;;;;15.37;6.93;;;3.40;93.80;;;;;;4985391;28;20038;-93
2021/01/06 04:20:14;;;;;;;;;;;3.40;93.80;;;;;;4985686;28;20019;-93
2021/01/06 04:22:50;;;;;;;17.63;7.10;;;3.30;93.90;;;;;;4985387;28;19894;-92
2021/01/06 04:25:34;;;;;;;15.27;6.93;;;3.40;93.90;;;;;;4985142;28;20038;-92
2021/01/06 04:28:18;;;;;;;14.80;7.13;;;3.40;93.90;;;;;;4984972;28;20043;-94
2021/01/06 04:30:49;;;;;;;17.13;7.53;;;3.40;94.00;;;;;;4985128;28;20026;-92
2021/01/06 04:33:20;;;;;;;18.27;7.27;;;3.40;93.90;;;;;;4984948;28;20015;-93
2021/01/06 04:35:46;;;;;;;17.20;7.37;;;3.40;93.90;;;;;;4984939;28;20014;-93
2021/01/06 04:38:24;;;;;;;15.23;7.07;;;3.40;93.90;;;;;;4984986;28;20078;-93
2021/01/06 04:40:54;;;;;;;16.43;7.67;;;3.40;93.90;;;;;;4985056;28;20024;-93
2021/01/06 04:43:40;;;;;;;15.23;7.03;;;3.40;93.90;;;;;;4984779;28;20011;-93
2021/01/06 04:46:21;;;;;;;18.07;7.77;;;3.40;93.80;;;;;;4984853;28;20018;-93
2021/01/06 04:49:00;;;;;;;19.43;8.03;;;3.40;93.90;;;;;;4984362;28;20033;-93
2021/01/06 04:51:34;;;;;;;16.92;7.70;;;3.40;93.80;;;;;;4984563;28;20047;-93
2021/01/06 04:54:19;;;;;;;18.70;7.70;;;3.40;93.80;;;;;;4984624;28;20019;-94
2021/01/06 04:57:04;;;;;;;15.30;7.10;;;3.40;93.80;;;;;;4984698;28;20032;-93
2021/01/06 04:59:42;;;;;;;15.70;7.27;;;3.40;93.70;;;;;;4984581;28;20033;-93
2021/01/06 05:02:20;;;;;;;17.65;7.47;;;3.40;93.70;;;;;;4984417;28;20011;-92
2021/01/06 05:05:01;;;;;;;18.70;7.60;;;3.40;93.70;;;;;;4984423;28;20039;-94
2021/01/06 05:07:51;;;;;;;19.10;7.93;;;3.40;93.80;;;;;;4984418;28;20098;-93
2021/01/06 05:10:34;;;;;;;16.27;7.37;;;3.40;93.70;;;;;;4984539;28;20011;-93
2021/01/06 05:13:11;;;;;;;17.27;7.53;;;3.40;93.80;;;;;;4984173;28;20007;-92
2021/01/06 05:15:55;;;;;;;16.20;7.37;;;3.40;93.80;;;;;;4984337;28;20019;-93
2021/01/06 05:18:20;;;;;;;16.40;7.37;;;3.40;93.90;;;;;;4984409;28;20011;-94
2021/01/06 05:20:46;;;;;;;15.60;7.03;;;3.40;93.90;;;;;;4984086;28;20037;-92
2021/01/06 05:23:21;;;;;;;18.03;7.43;;;3.30;93.90;;;;;;4984213;28;20104;-92
2021/01/06 05:25:47;;;;;;;17.90;7.50;;;3.40;93.70;;;;;;4983954;28;20016;-93
2021/01/06 05:28:16;;;;;;;15.97;6.97;;;3.40;93.80;;;;;;4983839;28;20110;-92
2021/01/06 05:30:54;;;;;;;16.42;7.18;;;3.40;93.80;;;;;;4984155;28;20015;-92
2021/01/06 05:33:28;;;;;;;15.68;6.63;;;3.40;93.70;;;;;;4983828;28;20043;-93
2021/01/06 05:35:53;;;;;;;16.37;6.87;;;3.40;93.70;;;;;;4983993;28;20031;-93
2021/01/06 05:38:19;;;;;;;15.57;6.53;;;3.40;93.80;;;;;;4983991;28;20169;-93
2021/01/06 05:40:45;;;;;;;15.00;6.57;;;3.40;93.80;;;;;;4984006;28;20015;-93
2021/01/06 05:43:16;;;;;;;14.67;6.23;;;3.40;93.80;;;;;;4983711;28;20021;-92
2021/01/06 05:45:47;;;;;;;16.27;6.80;;;3.40;93.60;;;;;;4983339;28;20042;-94
2021/01/06 05:48:23;;;;;;;16.73;6.47;;;3.40;93.80;;;;;;4960252;28;20142;-87
2021/01/06 05:51:10;;;;;;;14.57;6.17;;;3.40;93.70;;;;;;4959032;28;20057;-86
2021/01/06 05:53:55;;;;;;;15.53;6.70;;;3.40;93.50;;;;;;4958250;28;20045;-87
2021/01/06 05:56:56;;;;;;;15.70;6.60;;;3.40;93.80;;;;;;4962432;28;20135;-83
2021/01/06 05:59:28;;;;;;;14.80;5.80;;;3.40;93.60;;;;;;4962428;28;20027;-87
2021/01/06 06:02:03;;;;;;;14.70;5.90;;;3.40;93.60;;;;;;4957955;28;20031;-86
2021/01/06 06:05:23;;;;;;;15.70;6.43;;;3.40;93.60;;;;;;4958317;28;20023;-86
2021/01/06 06:08:13;;;;;;;15.13;6.33;;;3.40;93.50;;;;;;4896948;29;20025;-86
2021/01/06 06:11:06;;;;;;;16.57;6.53;;;3.40;93.40;;;;;;4959393;28;20027;-87
2021/01/06 06:13:54;;;;;;;15.33;6.57;;;3.40;93.60;;;;;;4958805;28;20081;-87
2021/01/06 06:16:41;;;;;;;15.43;6.57;;;3.40;93.60;;;;;;4958689;28;20023;-87
2021/01/06 06:19:14;;;;;;;14.87;6.60;;;3.40;93.50;;;;;;4958530;28;20031;-87
2021/01/06 06:22:02;;;;;;;15.60;7.30;;;3.40;93.60;;;;;;4976765;28;20033;-87
2021/01/06 06:25:00;;;;;;;16.83;7.10;;;3.40;93.50;;;;;;4958446;28;20023;-86
2021/01/06 06:27:41;;;;;;;17.85;7.63;;;3.40;93.60;;;;;;4976479;28;20041;-87
2021/01/06 06:30:10;;;;;;;16.47;7.03;;;3.40;93.40;;;;;;4959138;28;20572;-87
2021/01/06 06:32:38;;;;;;;16.98;7.85;;;3.50;93.40;;;;;;4976552;28;20081;-86
2021/01/06 06:35:19;;;;;;;17.23;8.07;;;3.50;93.00;;;;;;4954272;28;20547;-87
2021/01/06 06:37:51;;;;;;;16.77;7.70;;;3.40;93.20;;;;;;4958193;28;20511;-86
2021/01/06 06:40:17;;;;;;;18.73;8.77;;;3.40;93.30;;;;;;4957384;28;20054;-87
2021/01/06 06:42:57;;;;;;;16.90;7.90;;;3.40;93.40;;;;;;4957492;28;20035;-87
2021/01/06 06:45:38;;;;;;;18.53;9.10;;;3.40;93.40;;;;;;4969302;28;20385;-86
2021/01/06 06:48:17;;;;;;;17.33;8.77;;;3.40;93.40;;;;;;4984383;28;20039;-88
2021/01/06 06:50:53;;;;;;;18.37;8.63;;;3.40;93.50;;;;;;4962485;28;20030;-87
2021/01/06 06:53:29;;;;;;;20.30;9.77;;;3.40;93.40;;;;;;4961370;28;20050;-88
2021/01/06 06:56:07;;;;;;;20.67;9.60;;;3.40;93.50;;;;;;4976362;28;20046;-87
2021/01/06 06:58:39;;;;;;;19.57;9.87;;;3.40;93.50;;;;;;4984402;28;20023;-87
2021/01/06 07:01:08;;;;;;;20.10;9.90;;;3.30;93.50;;;;;;4982700;28;20022;-88
2021/01/06 07:03:36;;;;;;;21.30;10.90;;;3.40;93.40;;;;;;4979594;28;20031;-86
2021/01/06 07:06:10;;;;;;;19.50;10.20;;;3.40;93.40;;;;;;4965615;28;20077;-90
2021/01/06 07:08:43;;;;;;;19.90;9.83;;;3.40;93.40;;;;;;4964112;28;20477;-87
2021/01/06 07:11:24;;;;;;;22.00;11.33;;;3.30;93.30;;;;;;4961001;28;20026;-90
2021/01/06 07:14:04;;;;;;;21.93;10.43;;;3.40;93.70;;;;;;4966318;28;20030;-90
2021/01/06 07:16:35;;;;;;;21.93;10.60;;;3.40;93.80;;;;;;4980038;28;20082;-90
2021/01/06 07:19:18;;;;;;;18.97;10.30;;;3.30;93.30;;;;;;4981548;28;20041;-90
2021/01/06 07:21:50;;;;;;;20.50;10.60;;;3.30;93.40;;;;;;4982452;28;20034;-89
2021/01/06 07:24:20;;;;;;;21.00;10.50;;;3.30;93.50;;;;;;4982085;28;20038;-92
2021/01/06 07:26:54;;;;;;;20.73;10.50;;;3.30;93.40;;;;;;4963775;28;20026;-86
2021/01/06 07:29:23;;;;;;;21.43;10.80;;;3.30;93.50;;;;;;4961520;28;20493;-88
2021/01/06 07:32:00;;;;;;;20.52;10.63;;;3.30;93.50;;;;;;4979114;28;20026;-86
2021/01/06 07:34:43;;;;;;;21.53;10.93;;;3.30;93.10;;;;;;4975350;28;20030;-87
2021/01/06 07:37:31;;;;;;;21.43;11.30;;;3.30;93.50;;;;;;4946737;29;20043;-87
2021/01/06 07:40:18;;;;;;;21.97;10.83;;;3.20;93.50;;;;;;4953260;28;20026;-87
2021/01/06 07:42:46;;;;;;;20.60;10.57;;;3.30;93.50;;;;;;4951395;28;20031;-87
2021/01/06 07:45:15;;;;;;;24.90;11.55;;;3.30;93.60;;;;;;4965976;28;20031;-87
2021/01/06 07:48:06;;;;;;;22.98;11.50;;;3.30;93.60;;;;;;4966278;28;20027;-88
2021/01/06 07:50:34;;;;;;;27.00;13.07;;;3.30;93.60;;;;;;4964339;28;20051;-89
2021/01/06 07:53:11;;;;;;;20.67;10.90;;;3.30;93.50;;;;;;4968060;28;20070;-89
2021/01/06 07:55:45;;;;;;;23.50;11.20;;;3.20;93.40;;;;;;4965894;28;20082;-88
2021/01/06 07:58:17;;;;;;;21.17;11.30;;;3.30;93.60;;;;;;4975989;28;20080;-88
2021/01/06 08:00:52;;;;;;;20.20;10.43;;;3.20;93.50;;;;;;4979606;28;20135;-89
2021/01/06 08:03:47;;;;;;;21.53;10.60;;;3.20;93.60;;;;;;4987867;28;20479;-89
2021/01/06 08:06:20;;;;;;;20.70;10.50;;;3.30;93.60;;;;;;4965124;28;20031;-89
2021/01/06 08:08:51;;;;;;;20.27;10.40;;;3.20;93.60;;;;;;4978168;28;20015;-89
2021/01/06 08:11:21;;;;;;;21.97;11.47;;;3.20;93.50;;;;;;4976310;28;20023;-89
2021/01/06 08:13:49;;;;;;;22.17;10.57;;;3.30;93.70;;;;;;4978419;28;20038;-89
2021/01/06 08:16:30;;;;;;;23.50;11.18;;;3.30;93.60;;;;;;4961315;28;20038;-80
2021/01/06 08:19:12;;;;;;;20.87;10.27;;;3.30;93.60;;;;;;4970416;29;20031;-89
2021/01/06 08:22:13;;;;;;;19.83;9.67;;;3.30;93.50;;;;;;4952237;29;20400;-90
2021/01/06 08:25:04;;;;;;;19.87;9.77;;;3.30;93.20;;;;;;4937026;29;20402;-89
2021/01/06 08:27:37;;;;;;;19.53;9.60;;;3.30;93.30;;;;;;4976838;28;20026;-91
2021/01/06 08:30:16;;;;;;;20.03;10.20;;;3.30;93.30;;;;;;4985635;28;20038;-90
2021/01/06 08:32:42;;;;;;;;;;;3.30;93.40;;;;;;4996055;28;20026;-89
2021/01/06 08:35:19;;;;;;;19.20;8.90;;;3.30;93.40;;;;;;4999835;28;19906;-87
2021/01/06 08:37:51;;;;;;;21.13;9.80;;;3.30;93.40;;;;;;4980254;28;20076;-90
2021/01/06 08:40:36;;;;;;;19.93;9.60;;;3.20;93.10;;;;;;4981943;28;20045;-91
2021/01/06 08:43:10;;;;;;;20.17;9.93;;;3.20;93.40;;;;;;4982101;28;20022;-91
2021/01/06 08:45:40;;;;;;;20.87;9.60;;;3.20;93.40;;;;;;4968350;28;20030;-90
2021/01/06 08:48:17;;;;;;;21.00;10.90;;;3.20;93.50;;;;;;4977085;28;20030;-92
2021/01/06 08:50:44;;;;;;;20.77;10.33;;;3.20;93.40;;;;;;4990039;28;20241;-92
2021/01/06 08:53:13;;;;;;;20.47;10.17;;;3.20;93.50;;;;;;4984124;28;20057;-93
2021/01/06 08:55:42;;;;;;;22.92;11.10;;;3.20;93.40;;;;;;4982822;28;20030;-93
2021/01/06 08:58:13;;;;;;;20.20;10.43;;;3.20;93.50;;;;;;4984667;28;20037;-92
2021/01/06 09:00:56;;;;;;;24.50;10.90;;;3.20;93.40;;;;;;4981573;28;20491;-90
2021/01/06 09:03:54;;;;;;;20.67;10.60;;;3.10;93.50;;;;;;4995631;28;20034;-88
2021/01/06 09:06:22;;;;;;;22.00;10.70;;;3.20;93.60;;;;;;4979409;28;20030;-89
2021/01/06 09:09:03;;;;;;;21.87;10.07;;;3.20;93.60;;;;;;4978238;28;20026;-88
2021/01/06 09:11:45;;;;;;;22.00;10.00;;;3.20;93.60;;;;;;4978774;28;20038;-88
2021/01/06 09:14:16;;;;;;;21.10;9.90;;;3.20;93.60;;;;;;4959450;28;20070;-88
2021/01/06 09:16:49;;;;;;;19.53;9.67;;;3.20;93.10;;;;;;4958885;28;20023;-89
2021/01/06 09:19:43;;;;;;;20.07;9.80;;;3.20;93.40;;;;;;4978655;28;20033;-90
2021/01/06 09:22:14;;;;;;;21.47;9.93;;;3.20;93.50;;;;;;4977199;28;20088;-90
2021/01/06 09:24:41;;;;;;;19.87;9.70;;;3.20;93.50;;;;;;4958891;28;20031;-89
2021/01/06 09:27:30;;;;;;;20.23;10.37;;;3.20;93.60;;;;;;4958069;28;20103;-89
2021/01/06 09:29:57;;;;;;;19.97;9.33;;;3.20;93.50;;;;;;4957102;29;20110;-89
2021/01/06 09:32:28;;;;;;;20.13;9.60;;;3.20;93.60;;;;;;4943249;28;20038;-89
2021/01/06 09:35:06;;;;;;;18.47;9.20;;;3.20;93.50;;;;;;4975864;28;20026;-89
2021/01/06 09:37:35;;;;;;;20.53;9.87;;;3.30;93.40;;;;;;4978740;28;20039;-89
2021/01/06 09:40:25;;;;;;;19.92;9.63;;;3.30;93.40;;;;;;4978090;28;20030;-89
2021/01/06 09:43:22;;;;;;;20.50;10.73;;;3.30;93.50;;;;;;4972962;28;20396;-91
2021/01/06 09:45:48;;;;;;;22.50;10.17;;;3.30;93.30;;;;;;4943822;28;20181;-90
2021/01/06 09:48:15;;;;;;;20.10;9.90;;;3.30;93.40;;;;;;4957447;28;20067;-90
2021/01/06 09:50:50;;;;;;;20.10;10.13;;;3.30;93.40;;;;;;4957058;28;20034;-89
2021/01/06 09:53:20;;;;;;;23.07;9.33;;;3.30;93.40;;;;;;4976655;28;20105;-89
2021/01/06 09:55:48;;;;;;;20.33;9.60;;;3.30;93.40;;;;;;4971861;28;20055;-91
2021/01/06 09:58:28;;;;;;;18.90;9.37;;;3.20;93.10;;;;;;4957667;28;20062;-91
2021/01/06 10:01:10;;;;;;;19.80;8.93;;;3.20;93.40;;;;;;4961468;28;20039;-91
2021/01/06 10:03:39;;;;;;;19.17;9.27;;;3.30;93.50;;;;;;4956713;28;20086;-90
2021/01/06 10:06:29;;;;;;;19.53;9.43;;;3.30;93.50;;;;;;4956343;28;20023;-88
2021/01/06 10:09:10;;;;;;;19.43;8.97;;;3.30;93.40;;;;;;4968130;28;20289;-88
2021/01/06 10:11:57;;;;;;;20.30;8.97;;;3.30;93.50;;;;;;4957700;28;20114;-88
2021/01/06 10:14:48;;;;;;;19.03;8.70;;;3.20;93.20;;;;;;4956169;28;20023;-89
2021/01/06 10:17:25;;;;;;;20.60;8.90;;;3.20;93.30;;;;;;4973616;28;20038;-90
2021/01/06 10:20:12;;;;;;;18.17;8.23;;;3.20;93.60;;;;;;4979446;28;20022;-91
2021/01/06 10:22:52;;;;;;;18.00;7.83;;;3.20;93.40;;;;;;4977343;28;20473;-91
2021/01/06 10:25:38;;;;;;;20.13;8.53;;;3.20;93.40;;;;;;4967224;28;20023;-90
2021/01/06 10:28:22;;;;;;;17.97;8.07;;;3.20;93.40;;;;;;4944967;28;20322;-90
2021/01/06 10:31:10;;;;;;;19.57;7.80;;;3.20;93.40;;;;;;4980634;28;20050;-91
2021/01/06 10:33:56;;;;;;;18.43;7.57;;;3.30;93.40;;;;;;4966767;28;20123;-81
2021/01/06 10:36:59;;;;;;;18.50;7.30;;;3.30;93.30;;;;;;4979877;28;20102;-81
2021/01/06 10:39:41;;;;;;;17.63;7.40;;;3.30;93.30;;;;;;4960006;28;20050;-90
2021/01/06 10:42:21;;;;;;;17.60;7.47;;;3.30;93.20;;;;;;4985429;28;20097;-92
2021/01/06 10:44:55;;;;;;;17.67;6.70;;;3.30;93.30;;;;;;4970523;28;20023;-91
2021/01/06 10:47:26;;;;;;;16.07;6.30;;;3.30;93.20;;;;;;4983540;28;20089;-90
2021/01/06 10:49:56;;;;;;;15.90;6.90;;;3.30;93.20;;;;;;4985851;28;20038;-91
2021/01/06 10:52:25;;;;;;;14.70;6.53;;;3.20;93.10;;;;;;4991524;28;20042;-91
2021/01/06 10:54:53;;;;;;;14.57;5.85;;;3.20;93.10;;;;;;5001047;28;20009;-92
2021/01/06 10:57:38;;;;;;;16.03;6.43;;;3.20;93.20;;;;;;5004186;28;20029;-91
2021/01/06 11:00:20;;;;;;;17.00;6.50;;;3.20;92.70;;;;;;5000267;28;20065;-90
2021/01/06 11:03:16;;;;;;;14.57;5.87;;;3.20;93.10;;;;;;4998789;28;20034;-91
2021/01/06 11:05:53;;;;;;;15.53;6.07;;;3.20;93.20;;;;;;4974068;28;20019;-91
2021/01/06 11:08:56;;;;;;;15.37;5.83;;;3.30;93.20;;;;;;4969796;28;20035;-91
2021/01/06 11:12:05;;;;;;;15.27;5.90;;;3.30;93.10;;;;;;4980113;28;20106;-90
2021/01/06 11:14:45;;;;;;;14.02;5.18;;;3.30;93.00;;;;;;4962218;28;20019;-92
2021/01/06 11:17:14;;;;;;;15.63;6.00;;;3.30;93.00;;;;;;4964379;28;20031;-91
2021/01/06 11:19:56;;;;;;;15.07;5.77;;;3.30;93.20;;;;;;4962052;28;20031;-91
2021/01/06 11:22:34;;;;;;;14.23;5.60;;;3.30;93.00;;;;;;4961853;28;20023;-91
2021/01/06 11:25:26;;;;;;;15.60;5.13;;;3.30;92.90;;;;;;4975140;28;20030;-90
2021/01/06 11:28:04;;;;;;;11.80;4.83;;;3.40;93.10;;;;;;4982906;28;20117;-92
2021/01/06 11:30:35;;;;;;;16.93;5.87;;;3.40;93.10;;;;;;4981353;28;20040;-91
2021/01/06 11:33:20;;;;;;;14.27;5.13;;;3.30;92.70;;;;;;4980761;28;20026;-89
2021/01/06 11:36:07;;;;;;;13.07;5.20;;;3.30;92.90;;;;;;4981403;28;20027;-89
2021/01/06 11:38:42;;;;;;;13.63;5.13;;;3.40;93.00;;;;;;4982040;28;20026;-91
2021/01/06 11:41:09;;;;;;;14.57;5.07;;;3.40;92.90;;;;;;4981013;28;20058;-92
2021/01/06 11:43:53;;;;;;;14.87;5.63;;;3.40;92.70;;;;;;4965776;28;20151;-85
2021/01/06 11:46:25;;;;;;;13.13;5.10;;;3.50;91.90;;;;;;4983363;28;20038;-85
2021/01/06 11:49:04;;;;;;;13.67;5.43;;;3.50;92.80;;;;;;4968423;28;20110;-85
2021/01/06 11:51:30;;;;;;;15.70;5.30;;;3.50;92.90;;;;;;4969251;28;20435;-84
2021/01/06 11:54:21;;;;;;;14.00;5.27;;;3.50;92.80;;;;;;4965505;28;20057;-85
2021/01/06 11:57:19;;;;;;;13.07;5.00;;;3.50;92.10;;;;;;4981868;28;20051;-85
2021/01/06 12:00:14;;;;;;;14.50;5.00;;;3.60;92.60;;;;;;4968459;28;20030;-85
2021/01/06 12:03:07;;;;;;;13.03;5.10;;;3.50;92.30;;;;;;4969415;28;20551;-85
2021/01/06 12:05:54;;;;;;;12.80;5.07;;;3.60;92.60;;;;;;4978739;28;20092;-85
2021/01/06 12:08:41;;;;;;;14.97;5.50;;;3.60;92.20;;;;;;4988342;28;20046;-83
2021/01/06 12:11:09;;;;;;;15.33;6.30;;;3.60;92.60;;;;;;4966335;28;20034;-83
2021/01/06 12:14:04;;;;;;;13.47;5.77;;;3.60;92.30;;;;;;4985029;28;20027;-84
2021/01/06 12:16:51;;;;;;;14.83;5.57;;;3.70;92.50;;;;;;4966605;28;20034;-83
2021/01/06 12:19:31;;;;;;;14.23;5.40;;;3.70;92.50;;;;;;4965756;28;20038;-84
2021/01/06 12:21:59;;;;;;;13.30;5.40;;;3.70;92.30;;;;;;4982500;28;20031;-86
2021/01/06 12:24:28;;;;;;;12.93;5.73;;;3.70;92.50;;;;;;5000402;28;20033;-85
2021/01/06 12:27:08;;;;;;;13.73;5.50;;;3.70;92.40;;;;;;4986612;28;20034;-84
2021/01/06 12:29:46;;;;;;;13.27;5.50;;;3.80;92.20;;;;;;4986647;28;20072;-83
2021/01/06 12:32:23;;;;;;;15.73;5.90;;;3.80;92.00;;;;;;4968171;28;20396;-84
2021/01/06 12:34:53;;;;;;;11.83;4.77;;;3.70;91.80;;;;;;4998797;28;20085;-83
2021/01/06 12:37:29;;;;;;;12.65;5.28;;;3.80;92.30;;;;;;4968990;28;20026;-84
2021/01/06 12:39:58;;;;;;;12.93;5.67;;;3.70;92.30;;;;;;4983810;28;20053;-84
2021/01/06 12:42:32;;;;;;;14.65;5.45;;;3.70;92.00;;;;;;4985306;28;20038;-85
2021/01/06 12:45:13;;;;;;;16.33;6.30;;;3.70;92.40;;;;;;4984205;28;20069;-84
2021/01/06 12:47:59;;;;;;;14.03;6.10;;;3.60;92.40;;;;;;4985294;28;20473;-84
2021/01/06 12:50:27;;;;;;;15.57;6.00;;;3.60;92.40;;;;;;4984398;28;20019;-83
2021/01/06 12:53:09;;;;;;;14.63;5.90;;;3.60;92.40;;;;;;4970571;28;20288;-85
2021/01/06 12:55:47;;;;;;;12.57;4.60;;;3.60;92.40;;;;;;4968113;28;20026;-85
2021/01/06 12:58:21;;;;;;;13.17;5.60;;;3.50;92.50;;;;;;4975454;28;20487;-83
2021/01/06 13:00:59;;;;;;;16.30;5.60;;;3.50;92.50;;;;;;4989586;28;20026;-84
2021/01/06 13:03:40;;;;;;;13.27;5.37;;;3.50;92.30;;;;;;4968312;28;20029;-85
2021/01/06 13:06:24;;;;;;;14.50;5.03;;;3.50;92.50;;;;;;4976741;28;20030;-85
2021/01/06 13:09:13;;;;;;;13.57;5.23;;;3.50;92.40;;;;;;4982490;28;20037;-84
2021/01/06 13:11:38;;;;;;;11.87;5.13;;;3.40;92.50;;;;;;4963235;28;20027;-83
2021/01/06 13:14:13;;;;;;;11.73;4.70;;;3.40;92.60;;;;;;4983934;28;20050;-83
2021/01/06 13:16:56;;;;;;;13.37;5.30;;;3.40;92.70;;;;;;4975526;28;20111;-80
2021/01/06 13:19:39;;;;;;;11.63;4.60;;;3.50;92.60;;;;;;4981042;28;20023;-83
2021/01/06 13:22:43;;;;;;;11.67;4.30;;;3.50;92.30;;;;;;4983063;28;20034;-85
2021/01/06 13:25:38;;;;;;;12.13;4.67;;;3.50;92.50;;;;;;4924930;29;20032;-85
2021/01/06 13:28:32;;;;;;;11.93;4.83;;;3.50;92.60;;;;;;4984772;28;20027;-84
2021/01/06 13:31:29;;;;;;;14.07;5.10;;;3.50;92.50;;;;;;4972346;28;20065;-83